sensor_id;sensor_type;location;lat;lon;timestamp;P1;durP1;ratioP1;P2;durP2;ratioP2
33862;SDS011;20158;51.436;-2.742;2023-04-25T00:01:46;7.15;;;3.45;;
33862;SDS011;20158;51.436;-2.742;2023-04-25T00:04:12;6.32;;;4.28;;
33862;SDS011;20158;51.436;-2.742;2023-04-25T00:06:38;6.15;;;4.03;;
33862;SDS011;20158;51.436;-2.742;2023-04-25T00:09:04;7.47;;;3.92;;
33862;SDS011;20158;51.436;-2.742;2023-04-25T00:11:35;3.78;;;3.30;;
33862;SDS011;20158;51.436;-2.742;2023-04-25T00:14:02;6.03;;;3.88;;
33862;SDS011;20158;51.436;-2.742;2023-04-25T00:16:28;9.88;;;4.60;;
33862;SDS011;20158;51.436;-2.742;2023-04-25T00:18:58;5.93;;;3.83;;
33862;SDS011;20158;51.436;-2.742;2023-04-25T00:21:24;9.15;;;3.95;;
33862;SDS011;20158;51.436;-2.742;2023-04-25T00:23:52;8.68;;;4.35;;
33862;SDS011;20158;51.436;-2.742;2023-04-25T00:26:18;6.78;;;3.92;;
33862;SDS011;20158;51.436;-2.742;2023-04-25T00:28:46;8.27;;;3.95;;
33862;SDS011;20158;51.436;-2.742;2023-04-25T00:31:13;7.45;;;3.47;;
33862;SDS011;20158;51.436;-2.742;2023-04-25T00:33:39;7.97;;;4.13;;
33862;SDS011;20158;51.436;-2.742;2023-04-25T00:36:05;9.98;;;3.90;;
33862;SDS011;20158;51.436;-2.742;2023-04-25T00:38:32;8.02;;;3.90;;
33862;SDS011;20158;51.436;-2.742;2023-04-25T00:40:57;7.80;;;3.90;;
33862;SDS011;20158;51.436;-2.742;2023-04-25T00:43:25;6.25;;;3.92;;
33862;SDS011;20158;51.436;-2.742;2023-04-25T00:45:52;6.38;;;4.53;;
33862;SDS011;20158;51.436;-2.742;2023-04-25T00:48:19;6.85;;;4.13;;
33862;SDS011;20158;51.436;-2.742;2023-04-25T00:50:54;8.82;;;3.70;;
33862;SDS011;20158;51.436;-2.742;2023-04-25T00:53:23;8.32;;;4.20;;
33862;SDS011;20158;51.436;-2.742;2023-04-25T00:55:50;9.35;;;4.10;;
33862;SDS011;20158;51.436;-2.742;2023-04-25T00:58:17;8.45;;;4.85;;
33862;SDS011;20158;51.436;-2.742;2023-04-25T01:00:44;6.57;;;4.70;;
33862;SDS011;20158;51.436;-2.742;2023-04-25T01:03:12;8.98;;;4.18;;
33862;SDS011;20158;51.436;-2.742;2023-04-25T01:05:40;6.90;;;4.45;;
33862;SDS011;20158;51.436;-2.742;2023-04-25T01:08:06;7.47;;;4.43;;
33862;SDS011;20158;51.436;-2.742;2023-04-25T01:10:32;5.78;;;4.38;;
33862;SDS011;20158;51.436;-2.742;2023-04-25T01:12:58;6.03;;;4.20;;
33862;SDS011;20158;51.436;-2.742;2023-04-25T01:15:24;7.47;;;4.68;;
33862;SDS011;20158;51.436;-2.742;2023-04-25T01:17:51;7.97;;;4.38;;
33862;SDS011;20158;51.436;-2.742;2023-04-25T01:20:19;6.03;;;3.97;;
33862;SDS011;20158;51.436;-2.742;2023-04-25T01:22:48;6.32;;;4.30;;
33862;SDS011;20158;51.436;-2.742;2023-04-25T01:25:15;7.97;;;5.03;;
33862;SDS011;20158;51.436;-2.742;2023-04-25T01:27:42;8.15;;;5.13;;
33862;SDS011;20158;51.436;-2.742;2023-04-25T01:30:09;9.85;;;4.43;;
33862;SDS011;20158;51.436;-2.742;2023-04-25T01:32:36;9.77;;;5.10;;
33862;SDS011;20158;51.436;-2.742;2023-04-25T01:35:08;6.75;;;4.90;;
33862;SDS011;20158;51.436;-2.742;2023-04-25T01:37:40;10.48;;;4.70;;
33862;SDS011;20158;51.436;-2.742;2023-04-25T01:40:11;8.88;;;5.50;;
33862;SDS011;20158;51.436;-2.742;2023-04-25T01:42:38;11.60;;;5.35;;
33862;SDS011;20158;51.436;-2.742;2023-04-25T01:45:05;8.70;;;5.10;;
33862;SDS011;20158;51.436;-2.742;2023-04-25T01:47:33;7.22;;;4.38;;
33862;SDS011;20158;51.436;-2.742;2023-04-25T01:50:01;7.93;;;4.60;;
33862;SDS011;20158;51.436;-2.742;2023-04-25T01:52:29;6.05;;;4.63;;
33862;SDS011;20158;51.436;-2.742;2023-04-25T01:54:57;6.90;;;5.32;;
33862;SDS011;20158;51.436;-2.742;2023-04-25T01:57:25;8.00;;;4.93;;
33862;SDS011;20158;51.436;-2.742;2023-04-25T01:59:59;8.93;;;4.80;;
33862;SDS011;20158;51.436;-2.742;2023-04-25T02:02:38;8.30;;;6.03;;
33862;SDS011;20158;51.436;-2.742;2023-04-25T02:05:08;7.93;;;4.90;;
33862;SDS011;20158;51.436;-2.742;2023-04-25T02:07:37;8.38;;;4.60;;
33862;SDS011;20158;51.436;-2.742;2023-04-25T02:10:03;9.80;;;5.43;;
33862;SDS011;20158;51.436;-2.742;2023-04-25T02:12:35;8.95;;;4.85;;
33862;SDS011;20158;51.436;-2.742;2023-04-25T02:15:01;6.63;;;5.00;;
33862;SDS011;20158;51.436;-2.742;2023-04-25T02:17:38;6.53;;;4.57;;
33862;SDS011;20158;51.436;-2.742;2023-04-25T02:20:04;7.55;;;4.80;;
33862;SDS011;20158;51.436;-2.742;2023-04-25T02:22:31;9.90;;;5.13;;
33862;SDS011;20158;51.436;-2.742;2023-04-25T02:24:57;9.70;;;4.97;;
33862;SDS011;20158;51.436;-2.742;2023-04-25T02:27:23;6.97;;;4.60;;
33862;SDS011;20158;51.436;-2.742;2023-04-25T02:29:49;9.00;;;5.30;;
33862;SDS011;20158;51.436;-2.742;2023-04-25T02:32:15;10.10;;;4.95;;
33862;SDS011;20158;51.436;-2.742;2023-04-25T02:34:41;5.65;;;4.47;;
33862;SDS011;20158;51.436;-2.742;2023-04-25T02:37:07;8.93;;;4.68;;
33862;SDS011;20158;51.436;-2.742;2023-04-25T02:39:33;11.23;;;5.00;;
33862;SDS011;20158;51.436;-2.742;2023-04-25T02:41:58;8.15;;;4.80;;
33862;SDS011;20158;51.436;-2.742;2023-04-25T02:44:28;8.40;;;4.93;;
33862;SDS011;20158;51.436;-2.742;2023-04-25T02:46:54;9.45;;;4.82;;
33862;SDS011;20158;51.436;-2.742;2023-04-25T02:49:22;7.53;;;4.65;;
33862;SDS011;20158;51.436;-2.742;2023-04-25T02:51:49;6.95;;;5.05;;
33862;SDS011;20158;51.436;-2.742;2023-04-25T02:54:14;8.05;;;4.68;;
33862;SDS011;20158;51.436;-2.742;2023-04-25T02:56:43;7.13;;;4.20;;
33862;SDS011;20158;51.436;-2.742;2023-04-25T02:59:14;10.63;;;4.78;;
33862;SDS011;20158;51.436;-2.742;2023-04-25T03:01:40;8.13;;;4.70;;
33862;SDS011;20158;51.436;-2.742;2023-04-25T03:04:06;7.75;;;4.07;;
33862;SDS011;20158;51.436;-2.742;2023-04-25T03:06:32;6.07;;;4.45;;
33862;SDS011;20158;51.436;-2.742;2023-04-25T03:08:58;9.38;;;5.10;;
33862;SDS011;20158;51.436;-2.742;2023-04-25T03:11:25;9.57;;;5.47;;
33862;SDS011;20158;51.436;-2.742;2023-04-25T03:13:51;8.95;;;4.93;;
33862;SDS011;20158;51.436;-2.742;2023-04-25T03:16:17;8.35;;;4.82;;
33862;SDS011;20158;51.436;-2.742;2023-04-25T03:18:42;5.82;;;4.20;;
33862;SDS011;20158;51.436;-2.742;2023-04-25T03:21:08;9.25;;;4.47;;
33862;SDS011;20158;51.436;-2.742;2023-04-25T03:23:34;9.18;;;4.93;;
33862;SDS011;20158;51.436;-2.742;2023-04-25T03:26:00;5.57;;;4.20;;
33862;SDS011;20158;51.436;-2.742;2023-04-25T03:28:26;7.63;;;4.65;;
33862;SDS011;20158;51.436;-2.742;2023-04-25T03:30:54;6.25;;;4.38;;
33862;SDS011;20158;51.436;-2.742;2023-04-25T03:33:20;5.65;;;4.25;;
33862;SDS011;20158;51.436;-2.742;2023-04-25T03:35:47;5.90;;;5.00;;
33862;SDS011;20158;51.436;-2.742;2023-04-25T03:38:13;6.95;;;4.68;;
33862;SDS011;20158;51.436;-2.742;2023-04-25T03:40:39;9.32;;;4.68;;
33862;SDS011;20158;51.436;-2.742;2023-04-25T03:43:21;7.32;;;3.85;;
33862;SDS011;20158;51.436;-2.742;2023-04-25T03:45:53;11.18;;;4.97;;
33862;SDS011;20158;51.436;-2.742;2023-04-25T03:48:21;9.07;;;4.57;;
33862;SDS011;20158;51.436;-2.742;2023-04-25T03:50:49;7.53;;;4.63;;
33862;SDS011;20158;51.436;-2.742;2023-04-25T03:53:15;6.25;;;4.03;;
33862;SDS011;20158;51.436;-2.742;2023-04-25T03:56:10;5.78;;;4.35;;
33862;SDS011;20158;51.436;-2.742;2023-04-25T03:58:38;5.05;;;3.67;;
33862;SDS011;20158;51.436;-2.742;2023-04-25T04:01:05;8.85;;;4.45;;
33862;SDS011;20158;51.436;-2.742;2023-04-25T04:03:34;6.82;;;4.07;;
33862;SDS011;20158;51.436;-2.742;2023-04-25T04:06:03;9.85;;;5.00;;
33862;SDS011;20158;51.436;-2.742;2023-04-25T04:08:33;7.30;;;3.80;;
33862;SDS011;20158;51.436;-2.742;2023-04-25T04:10:59;6.10;;;4.45;;
33862;SDS011;20158;51.436;-2.742;2023-04-25T04:13:26;7.10;;;3.70;;
33862;SDS011;20158;51.436;-2.742;2023-04-25T04:15:53;7.75;;;3.83;;
33862;SDS011;20158;51.436;-2.742;2023-04-25T04:18:21;5.95;;;3.72;;
33862;SDS011;20158;51.436;-2.742;2023-04-25T04:20:47;9.93;;;4.15;;
33862;SDS011;20158;51.436;-2.742;2023-04-25T04:23:13;6.55;;;3.60;;
33862;SDS011;20158;51.436;-2.742;2023-04-25T04:25:39;7.97;;;4.95;;
33862;SDS011;20158;51.436;-2.742;2023-04-25T04:28:27;9.20;;;5.20;;
33862;SDS011;20158;51.436;-2.742;2023-04-25T04:31:13;5.47;;;3.78;;
33862;SDS011;20158;51.436;-2.742;2023-04-25T04:33:42;7.72;;;3.70;;
33862;SDS011;20158;51.436;-2.742;2023-04-25T04:36:08;7.80;;;4.38;;
33862;SDS011;20158;51.436;-2.742;2023-04-25T04:38:34;6.93;;;3.50;;
33862;SDS011;20158;51.436;-2.742;2023-04-25T04:41:03;5.00;;;3.05;;
33862;SDS011;20158;51.436;-2.742;2023-04-25T04:43:35;5.90;;;3.35;;
33862;SDS011;20158;51.436;-2.742;2023-04-25T04:46:02;5.90;;;3.22;;
33862;SDS011;20158;51.436;-2.742;2023-04-25T04:48:50;4.53;;;2.78;;
33862;SDS011;20158;51.436;-2.742;2023-04-25T04:51:34;7.38;;;3.65;;
33862;SDS011;20158;51.436;-2.742;2023-04-25T04:54:30;7.68;;;2.67;;
33862;SDS011;20158;51.436;-2.742;2023-04-25T04:57:10;4.55;;;2.65;;
33862;SDS011;20158;51.436;-2.742;2023-04-25T04:59:59;7.28;;;2.67;;
33862;SDS011;20158;51.436;-2.742;2023-04-25T05:02:49;6.13;;;3.00;;
33862;SDS011;20158;51.436;-2.742;2023-04-25T05:05:31;7.18;;;2.78;;
33862;SDS011;20158;51.436;-2.742;2023-04-25T05:08:13;3.72;;;2.63;;
33862;SDS011;20158;51.436;-2.742;2023-04-25T05:10:50;5.20;;;2.63;;
33862;SDS011;20158;51.436;-2.742;2023-04-25T05:13:31;6.47;;;2.60;;
33862;SDS011;20158;51.436;-2.742;2023-04-25T05:16:35;4.10;;;2.72;;
33862;SDS011;20158;51.436;-2.742;2023-04-25T05:19:33;4.22;;;2.45;;
33862;SDS011;20158;51.436;-2.742;2023-04-25T05:22:20;4.97;;;2.60;;
33862;SDS011;20158;51.436;-2.742;2023-04-25T05:25:08;3.72;;;2.38;;
33862;SDS011;20158;51.436;-2.742;2023-04-25T05:27:49;6.93;;;3.10;;
33862;SDS011;20158;51.436;-2.742;2023-04-25T05:30:35;5.63;;;2.47;;
33862;SDS011;20158;51.436;-2.742;2023-04-25T05:33:08;5.18;;;2.22;;
33862;SDS011;20158;51.436;-2.742;2023-04-25T05:35:34;3.45;;;2.50;;
33862;SDS011;20158;51.436;-2.742;2023-04-25T05:38:00;4.65;;;2.40;;
33862;SDS011;20158;51.436;-2.742;2023-04-25T05:40:58;6.80;;;2.42;;
33862;SDS011;20158;51.436;-2.742;2023-04-25T05:43:51;6.72;;;2.65;;
33862;SDS011;20158;51.436;-2.742;2023-04-25T05:46:24;5.18;;;2.65;;
33862;SDS011;20158;51.436;-2.742;2023-04-25T05:49:04;6.75;;;2.90;;
33862;SDS011;20158;51.436;-2.742;2023-04-25T05:51:40;6.45;;;2.45;;
33862;SDS011;20158;51.436;-2.742;2023-04-25T05:54:26;8.43;;;2.70;;
33862;SDS011;20158;51.436;-2.742;2023-04-25T05:56:55;5.68;;;2.95;;
33862;SDS011;20158;51.436;-2.742;2023-04-25T05:59:22;4.75;;;2.55;;
33862;SDS011;20158;51.436;-2.742;2023-04-25T06:01:48;3.85;;;2.42;;
33862;SDS011;20158;51.436;-2.742;2023-04-25T06:04:14;5.82;;;2.80;;
33862;SDS011;20158;51.436;-2.742;2023-04-25T06:06:41;5.20;;;3.10;;
33862;SDS011;20158;51.436;-2.742;2023-04-25T06:09:07;5.95;;;2.78;;
33862;SDS011;20158;51.436;-2.742;2023-04-25T06:11:33;6.80;;;2.78;;
33862;SDS011;20158;51.436;-2.742;2023-04-25T06:13:58;4.55;;;2.70;;
33862;SDS011;20158;51.436;-2.742;2023-04-25T06:16:25;5.60;;;3.05;;
33862;SDS011;20158;51.436;-2.742;2023-04-25T06:18:51;4.30;;;2.75;;
33862;SDS011;20158;51.436;-2.742;2023-04-25T06:21:17;6.00;;;2.70;;
33862;SDS011;20158;51.436;-2.742;2023-04-25T06:23:43;5.10;;;3.10;;
33862;SDS011;20158;51.436;-2.742;2023-04-25T06:26:11;4.43;;;2.95;;
33862;SDS011;20158;51.436;-2.742;2023-04-25T06:28:41;5.38;;;3.30;;
33862;SDS011;20158;51.436;-2.742;2023-04-25T06:31:08;5.22;;;3.10;;
33862;SDS011;20158;51.436;-2.742;2023-04-25T06:33:34;5.35;;;3.22;;
33862;SDS011;20158;51.436;-2.742;2023-04-25T06:36:01;5.20;;;3.13;;
33862;SDS011;20158;51.436;-2.742;2023-04-25T06:38:28;8.10;;;3.90;;
33862;SDS011;20158;51.436;-2.742;2023-04-25T06:40:56;9.40;;;4.35;;
33862;SDS011;20158;51.436;-2.742;2023-04-25T06:43:22;14.38;;;4.45;;
33862;SDS011;20158;51.436;-2.742;2023-04-25T06:46:02;8.35;;;4.07;;
33862;SDS011;20158;51.436;-2.742;2023-04-25T06:48:30;7.45;;;3.38;;
33862;SDS011;20158;51.436;-2.742;2023-04-25T06:50:57;8.77;;;4.20;;
33862;SDS011;20158;51.436;-2.742;2023-04-25T06:53:24;6.60;;;3.35;;
33862;SDS011;20158;51.436;-2.742;2023-04-25T06:55:56;6.13;;;3.45;;
33862;SDS011;20158;51.436;-2.742;2023-04-25T06:58:25;7.38;;;3.53;;
33862;SDS011;20158;51.436;-2.742;2023-04-25T07:01:17;6.05;;;3.50;;
33862;SDS011;20158;51.436;-2.742;2023-04-25T07:03:43;9.70;;;3.67;;
33862;SDS011;20158;51.436;-2.742;2023-04-25T07:06:15;9.05;;;3.72;;
33862;SDS011;20158;51.436;-2.742;2023-04-25T07:08:41;5.63;;;3.05;;
33862;SDS011;20158;51.436;-2.742;2023-04-25T07:11:07;7.00;;;3.50;;
33862;SDS011;20158;51.436;-2.742;2023-04-25T07:13:35;6.00;;;3.72;;
33862;SDS011;20158;51.436;-2.742;2023-04-25T07:16:01;7.53;;;3.60;;
33862;SDS011;20158;51.436;-2.742;2023-04-25T07:18:30;6.22;;;3.20;;
33862;SDS011;20158;51.436;-2.742;2023-04-25T07:20:56;7.47;;;3.28;;
33862;SDS011;20158;51.436;-2.742;2023-04-25T07:23:22;5.18;;;3.50;;
33862;SDS011;20158;51.436;-2.742;2023-04-25T07:25:49;11.30;;;3.92;;
33862;SDS011;20158;51.436;-2.742;2023-04-25T07:28:20;6.25;;;3.67;;
33862;SDS011;20158;51.436;-2.742;2023-04-25T07:30:46;4.55;;;3.30;;
33862;SDS011;20158;51.436;-2.742;2023-04-25T07:33:12;7.90;;;4.05;;
33862;SDS011;20158;51.436;-2.742;2023-04-25T07:35:39;7.97;;;3.33;;
33862;SDS011;20158;51.436;-2.742;2023-04-25T07:38:05;7.10;;;3.70;;
33862;SDS011;20158;51.436;-2.742;2023-04-25T07:40:32;7.35;;;3.28;;
33862;SDS011;20158;51.436;-2.742;2023-04-25T07:43:04;6.78;;;4.10;;
33862;SDS011;20158;51.436;-2.742;2023-04-25T07:45:46;5.57;;;3.30;;
33862;SDS011;20158;51.436;-2.742;2023-04-25T07:48:18;5.30;;;3.13;;
33862;SDS011;20158;51.436;-2.742;2023-04-25T07:50:45;9.13;;;3.63;;
33862;SDS011;20158;51.436;-2.742;2023-04-25T07:53:11;4.93;;;3.42;;
33862;SDS011;20158;51.436;-2.742;2023-04-25T07:55:44;11.45;;;4.70;;
33862;SDS011;20158;51.436;-2.742;2023-04-25T07:58:14;8.10;;;3.13;;
33862;SDS011;20158;51.436;-2.742;2023-04-25T08:00:43;9.10;;;4.13;;
33862;SDS011;20158;51.436;-2.742;2023-04-25T08:03:28;7.30;;;3.20;;
33862;SDS011;20158;51.436;-2.742;2023-04-25T08:05:55;7.60;;;3.60;;
33862;SDS011;20158;51.436;-2.742;2023-04-25T08:08:23;6.50;;;3.25;;
33862;SDS011;20158;51.436;-2.742;2023-04-25T08:10:49;5.28;;;2.78;;
33862;SDS011;20158;51.436;-2.742;2023-04-25T08:13:16;6.07;;;2.78;;
33862;SDS011;20158;51.436;-2.742;2023-04-25T08:15:42;6.78;;;2.58;;
33862;SDS011;20158;51.436;-2.742;2023-04-25T08:18:08;7.75;;;2.75;;
33862;SDS011;20158;51.436;-2.742;2023-04-25T08:20:34;8.15;;;3.42;;
33862;SDS011;20158;51.436;-2.742;2023-04-25T08:23:03;7.65;;;2.20;;
33862;SDS011;20158;51.436;-2.742;2023-04-25T08:26:05;7.65;;;2.72;;
33862;SDS011;20158;51.436;-2.742;2023-04-25T08:28:35;6.30;;;2.47;;
33862;SDS011;20158;51.436;-2.742;2023-04-25T08:31:01;9.57;;;2.85;;
33862;SDS011;20158;51.436;-2.742;2023-04-25T08:33:34;7.18;;;2.38;;
33862;SDS011;20158;51.436;-2.742;2023-04-25T08:36:09;5.07;;;2.17;;
33862;SDS011;20158;51.436;-2.742;2023-04-25T08:38:36;4.82;;;1.85;;
33862;SDS011;20158;51.436;-2.742;2023-04-25T08:41:05;5.07;;;1.92;;
33862;SDS011;20158;51.436;-2.742;2023-04-25T08:43:32;4.95;;;2.70;;
33862;SDS011;20158;51.436;-2.742;2023-04-25T08:46:00;5.07;;;2.08;;
33862;SDS011;20158;51.436;-2.742;2023-04-25T08:48:37;7.07;;;2.85;;
33862;SDS011;20158;51.436;-2.742;2023-04-25T08:51:07;7.03;;;2.35;;
33862;SDS011;20158;51.436;-2.742;2023-04-25T08:53:34;7.80;;;2.38;;
33862;SDS011;20158;51.436;-2.742;2023-04-25T08:56:03;4.40;;;2.33;;
33862;SDS011;20158;51.436;-2.742;2023-04-25T08:58:34;4.00;;;1.70;;
33862;SDS011;20158;51.436;-2.742;2023-04-25T09:01:02;3.92;;;1.70;;
33862;SDS011;20158;51.436;-2.742;2023-04-25T09:03:36;5.07;;;2.22;;
33862;SDS011;20158;51.436;-2.742;2023-04-25T09:06:02;4.15;;;2.13;;
33862;SDS011;20158;51.436;-2.742;2023-04-25T09:08:28;2.65;;;1.38;;
33862;SDS011;20158;51.436;-2.742;2023-04-25T09:10:55;5.72;;;1.83;;
33862;SDS011;20158;51.436;-2.742;2023-04-25T09:13:26;3.40;;;1.95;;
33862;SDS011;20158;51.436;-2.742;2023-04-25T09:16:12;3.80;;;1.67;;
33862;SDS011;20158;51.436;-2.742;2023-04-25T09:19:01;3.75;;;1.48;;
33862;SDS011;20158;51.436;-2.742;2023-04-25T09:21:27;3.58;;;2.13;;
33862;SDS011;20158;51.436;-2.742;2023-04-25T09:23:53;4.43;;;1.33;;
33862;SDS011;20158;51.436;-2.742;2023-04-25T09:26:20;5.60;;;2.15;;
33862;SDS011;20158;51.436;-2.742;2023-04-25T09:28:47;5.28;;;1.52;;
33862;SDS011;20158;51.436;-2.742;2023-04-25T09:31:22;4.38;;;1.65;;
33862;SDS011;20158;51.436;-2.742;2023-04-25T09:33:50;4.43;;;1.67;;
33862;SDS011;20158;51.436;-2.742;2023-04-25T09:36:26;4.13;;;1.63;;
33862;SDS011;20158;51.436;-2.742;2023-04-25T09:39:18;5.70;;;1.40;;
33862;SDS011;20158;51.436;-2.742;2023-04-25T09:41:54;3.25;;;1.90;;
33862;SDS011;20158;51.436;-2.742;2023-04-25T09:44:23;3.55;;;1.67;;
33862;SDS011;20158;51.436;-2.742;2023-04-25T09:46:51;6.28;;;1.70;;
33862;SDS011;20158;51.436;-2.742;2023-04-25T09:49:23;6.45;;;2.20;;
33862;SDS011;20158;51.436;-2.742;2023-04-25T09:52:02;2.25;;;1.40;;
33862;SDS011;20158;51.436;-2.742;2023-04-25T09:54:38;5.80;;;1.73;;
33862;SDS011;20158;51.436;-2.742;2023-04-25T09:57:13;2.72;;;1.48;;
33862;SDS011;20158;51.436;-2.742;2023-04-25T09:59:42;2.40;;;1.40;;
33862;SDS011;20158;51.436;-2.742;2023-04-25T10:02:10;3.90;;;1.58;;
33862;SDS011;20158;51.436;-2.742;2023-04-25T10:04:39;3.13;;;1.73;;
33862;SDS011;20158;51.436;-2.742;2023-04-25T10:07:25;3.15;;;1.60;;
33862;SDS011;20158;51.436;-2.742;2023-04-25T10:09:55;3.70;;;1.77;;
33862;SDS011;20158;51.436;-2.742;2023-04-25T10:12:28;4.82;;;2.03;;
33862;SDS011;20158;51.436;-2.742;2023-04-25T10:14:57;4.90;;;2.63;;
33862;SDS011;20158;51.436;-2.742;2023-04-25T10:17:23;3.03;;;1.55;;
33862;SDS011;20158;51.436;-2.742;2023-04-25T10:19:52;3.90;;;1.83;;
33862;SDS011;20158;51.436;-2.742;2023-04-25T10:22:38;2.55;;;1.33;;
33862;SDS011;20158;51.436;-2.742;2023-04-25T10:25:07;1.80;;;1.20;;
33862;SDS011;20158;51.436;-2.742;2023-04-25T10:27:34;4.25;;;1.70;;
33862;SDS011;20158;51.436;-2.742;2023-04-25T10:30:02;7.00;;;2.05;;
33862;SDS011;20158;51.436;-2.742;2023-04-25T10:32:36;4.10;;;1.70;;
33862;SDS011;20158;51.436;-2.742;2023-04-25T10:35:15;3.65;;;1.83;;
33862;SDS011;20158;51.436;-2.742;2023-04-25T10:38:03;3.00;;;1.40;;
33862;SDS011;20158;51.436;-2.742;2023-04-25T10:40:30;2.33;;;0.98;;
33862;SDS011;20158;51.436;-2.742;2023-04-25T10:45:54;1.98;;;1.35;;
33862;SDS011;20158;51.436;-2.742;2023-04-25T10:48:27;4.93;;;1.70;;
33862;SDS011;20158;51.436;-2.742;2023-04-25T10:51:15;5.75;;;1.50;;
33862;SDS011;20158;51.436;-2.742;2023-04-25T10:53:56;2.90;;;1.70;;
33862;SDS011;20158;51.436;-2.742;2023-04-25T10:56:48;4.15;;;1.50;;
33862;SDS011;20158;51.436;-2.742;2023-04-25T10:59:15;3.05;;;1.20;;
33862;SDS011;20158;51.436;-2.742;2023-04-25T11:01:44;2.63;;;1.33;;
33862;SDS011;20158;51.436;-2.742;2023-04-25T11:07:12;4.68;;;2.00;;
33862;SDS011;20158;51.436;-2.742;2023-04-25T11:10:05;2.95;;;1.48;;
33862;SDS011;20158;51.436;-2.742;2023-04-25T11:12:31;4.22;;;1.80;;
33862;SDS011;20158;51.436;-2.742;2023-04-25T11:14:58;3.15;;;1.58;;
33862;SDS011;20158;51.436;-2.742;2023-04-25T11:17:33;1.98;;;1.10;;
33862;SDS011;20158;51.436;-2.742;2023-04-25T11:20:00;2.35;;;1.15;;
33862;SDS011;20158;51.436;-2.742;2023-04-25T11:22:26;3.60;;;1.55;;
33862;SDS011;20158;51.436;-2.742;2023-04-25T11:24:53;3.17;;;1.02;;
33862;SDS011;20158;51.436;-2.742;2023-04-25T11:27:19;2.05;;;1.05;;
33862;SDS011;20158;51.436;-2.742;2023-04-25T11:29:46;2.80;;;1.20;;
33862;SDS011;20158;51.436;-2.742;2023-04-25T11:32:15;2.83;;;1.30;;
33862;SDS011;20158;51.436;-2.742;2023-04-25T11:34:43;2.00;;;1.38;;
33862;SDS011;20158;51.436;-2.742;2023-04-25T11:37:10;2.72;;;1.17;;
33862;SDS011;20158;51.436;-2.742;2023-04-25T11:39:42;2.50;;;1.30;;
33862;SDS011;20158;51.436;-2.742;2023-04-25T11:42:10;2.72;;;1.30;;
33862;SDS011;20158;51.436;-2.742;2023-04-25T11:44:37;2.75;;;1.00;;
33862;SDS011;20158;51.436;-2.742;2023-04-25T11:47:04;1.92;;;1.15;;
33862;SDS011;20158;51.436;-2.742;2023-04-25T11:49:31;4.05;;;1.58;;
33862;SDS011;20158;51.436;-2.742;2023-04-25T11:51:57;2.53;;;1.10;;
33862;SDS011;20158;51.436;-2.742;2023-04-25T11:54:23;2.55;;;1.23;;
33862;SDS011;20158;51.436;-2.742;2023-04-25T11:56:49;2.55;;;1.13;;
33862;SDS011;20158;51.436;-2.742;2023-04-25T11:59:15;3.05;;;1.23;;
33862;SDS011;20158;51.436;-2.742;2023-04-25T12:01:48;2.42;;;1.08;;
33862;SDS011;20158;51.436;-2.742;2023-04-25T12:04:22;1.67;;;1.00;;
33862;SDS011;20158;51.436;-2.742;2023-04-25T12:06:51;2.95;;;1.02;;
33862;SDS011;20158;51.436;-2.742;2023-04-25T12:09:21;1.60;;;0.82;;
33862;SDS011;20158;51.436;-2.742;2023-04-25T12:11:54;4.07;;;1.40;;
33862;SDS011;20158;51.436;-2.742;2023-04-25T12:14:31;1.88;;;1.30;;
33862;SDS011;20158;51.436;-2.742;2023-04-25T12:16:59;2.40;;;0.73;;
33862;SDS011;20158;51.436;-2.742;2023-04-25T12:19:31;2.33;;;0.80;;
33862;SDS011;20158;51.436;-2.742;2023-04-25T12:22:02;1.73;;;1.00;;
33862;SDS011;20158;51.436;-2.742;2023-04-25T12:24:45;1.83;;;1.23;;
33862;SDS011;20158;51.436;-2.742;2023-04-25T12:27:14;2.45;;;1.15;;
33862;SDS011;20158;51.436;-2.742;2023-04-25T12:29:51;1.45;;;0.98;;
33862;SDS011;20158;51.436;-2.742;2023-04-25T12:32:18;0.88;;;0.80;;
33862;SDS011;20158;51.436;-2.742;2023-04-25T12:34:44;3.80;;;1.15;;
33862;SDS011;20158;51.436;-2.742;2023-04-25T12:37:10;2.58;;;1.10;;
33862;SDS011;20158;51.436;-2.742;2023-04-25T12:39:37;2.92;;;1.13;;
33862;SDS011;20158;51.436;-2.742;2023-04-25T12:42:02;1.75;;;0.90;;
33862;SDS011;20158;51.436;-2.742;2023-04-25T12:44:28;1.50;;;0.90;;
33862;SDS011;20158;51.436;-2.742;2023-04-25T12:46:55;2.33;;;0.85;;
33862;SDS011;20158;51.436;-2.742;2023-04-25T12:49:20;3.17;;;0.90;;
33862;SDS011;20158;51.436;-2.742;2023-04-25T12:51:47;1.92;;;1.40;;
33862;SDS011;20158;51.436;-2.742;2023-04-25T12:54:13;2.70;;;1.10;;
33862;SDS011;20158;51.436;-2.742;2023-04-25T12:56:40;2.60;;;1.02;;
33862;SDS011;20158;51.436;-2.742;2023-04-25T12:59:07;2.88;;;1.63;;
33862;SDS011;20158;51.436;-2.742;2023-04-25T13:01:33;1.60;;;1.20;;
33862;SDS011;20158;51.436;-2.742;2023-04-25T13:03:59;2.88;;;1.50;;
33862;SDS011;20158;51.436;-2.742;2023-04-25T13:06:25;3.25;;;1.08;;
33862;SDS011;20158;51.436;-2.742;2023-04-25T13:08:51;18.25;;;2.00;;
33862;SDS011;20158;51.436;-2.742;2023-04-25T13:11:17;2.83;;;1.08;;
33862;SDS011;20158;51.436;-2.742;2023-04-25T13:13:43;1.13;;;0.80;;
33862;SDS011;20158;51.436;-2.742;2023-04-25T13:16:09;4.80;;;1.75;;
33862;SDS011;20158;51.436;-2.742;2023-04-25T13:18:36;2.38;;;1.20;;
33862;SDS011;20158;51.436;-2.742;2023-04-25T13:21:02;1.90;;;1.08;;
33862;SDS011;20158;51.436;-2.742;2023-04-25T13:23:28;4.80;;;1.20;;
33862;SDS011;20158;51.436;-2.742;2023-04-25T13:25:54;2.22;;;1.30;;
33862;SDS011;20158;51.436;-2.742;2023-04-25T13:28:23;4.10;;;1.10;;
33862;SDS011;20158;51.436;-2.742;2023-04-25T13:30:50;1.83;;;1.10;;
33862;SDS011;20158;51.436;-2.742;2023-04-25T13:33:17;3.42;;;1.75;;
33862;SDS011;20158;51.436;-2.742;2023-04-25T13:35:43;1.83;;;1.30;;
33862;SDS011;20158;51.436;-2.742;2023-04-25T13:38:12;2.15;;;1.50;;
33862;SDS011;20158;51.436;-2.742;2023-04-25T13:40:38;2.85;;;1.27;;
33862;SDS011;20158;51.436;-2.742;2023-04-25T13:43:05;2.72;;;1.27;;
33862;SDS011;20158;51.436;-2.742;2023-04-25T13:45:31;1.85;;;1.10;;
33862;SDS011;20158;51.436;-2.742;2023-04-25T13:47:57;1.40;;;0.88;;
33862;SDS011;20158;51.436;-2.742;2023-04-25T13:50:23;2.67;;;1.20;;
33862;SDS011;20158;51.436;-2.742;2023-04-25T13:52:49;3.67;;;1.25;;
33862;SDS011;20158;51.436;-2.742;2023-04-25T13:55:15;3.05;;;2.03;;
33862;SDS011;20158;51.436;-2.742;2023-04-25T13:57:41;3.65;;;1.70;;
33862;SDS011;20158;51.436;-2.742;2023-04-25T14:00:07;7.20;;;1.38;;
33862;SDS011;20158;51.436;-2.742;2023-04-25T14:02:34;2.97;;;1.17;;
33862;SDS011;20158;51.436;-2.742;2023-04-25T14:05:01;2.78;;;1.20;;
33862;SDS011;20158;51.436;-2.742;2023-04-25T14:07:28;2.00;;;1.25;;
33862;SDS011;20158;51.436;-2.742;2023-04-25T14:09:54;1.40;;;1.27;;
33862;SDS011;20158;51.436;-2.742;2023-04-25T14:12:21;1.80;;;0.90;;
33862;SDS011;20158;51.436;-2.742;2023-04-25T14:14:47;1.73;;;1.00;;
33862;SDS011;20158;51.436;-2.742;2023-04-25T14:17:13;3.53;;;1.15;;
33862;SDS011;20158;51.436;-2.742;2023-04-25T14:19:39;1.55;;;1.05;;
33862;SDS011;20158;51.436;-2.742;2023-04-25T14:22:08;1.58;;;1.08;;
33862;SDS011;20158;51.436;-2.742;2023-04-25T14:24:35;1.48;;;1.05;;
33862;SDS011;20158;51.436;-2.742;2023-04-25T14:27:01;2.53;;;0.90;;
33862;SDS011;20158;51.436;-2.742;2023-04-25T14:29:27;4.43;;;1.88;;
33862;SDS011;20158;51.436;-2.742;2023-04-25T14:31:53;2.30;;;1.40;;
33862;SDS011;20158;51.436;-2.742;2023-04-25T14:34:19;1.27;;;1.10;;
33862;SDS011;20158;51.436;-2.742;2023-04-25T14:36:45;1.95;;;1.13;;
33862;SDS011;20158;51.436;-2.742;2023-04-25T14:39:12;1.63;;;0.98;;
33862;SDS011;20158;51.436;-2.742;2023-04-25T14:41:39;2.22;;;1.27;;
33862;SDS011;20158;51.436;-2.742;2023-04-25T14:44:05;1.95;;;1.30;;
33862;SDS011;20158;51.436;-2.742;2023-04-25T14:46:31;3.35;;;1.50;;
33862;SDS011;20158;51.436;-2.742;2023-04-25T14:48:57;1.75;;;0.93;;
33862;SDS011;20158;51.436;-2.742;2023-04-25T14:51:23;2.42;;;1.45;;
33862;SDS011;20158;51.436;-2.742;2023-04-25T14:53:49;3.55;;;1.67;;
33862;SDS011;20158;51.436;-2.742;2023-04-25T14:56:15;2.20;;;1.20;;